Time;durP1;ratioP1;P1;durP2;ratioP2;P2;SDS_P1;SDS_P2;PMS_P1;PMS_P2;Temp;Humidity;BMP_temperature;BMP_pressure;BME280_temperature;BME280_humidity;BME280_pressure;Samples;Min_cycle;Max_cycle;Signal;HPM_P1;HPM_P2
2022/05/06 00:01:58;;;;;;;9.00;7.40;;;16.20;79.70;;;;;;5073097;28;20208;-64
2022/05/06 00:04:25;;;;;;;10.75;7.28;;;16.20;80.00;;;;;;5063901;28;20766;-64
2022/05/06 00:06:53;;;;;;;9.98;7.55;;;16.20;80.90;;;;;;5070503;28;20212;-63
2022/05/06 00:09:20;;;;;;;7.75;6.95;;;16.20;80.90;;;;;;5062501;28;20225;-65
2022/05/06 00:11:47;;;;;;;9.90;7.33;;;16.10;81.20;;;;;;5067240;28;20300;-65
2022/05/06 00:14:13;;;;;;;8.57;7.00;;;16.10;81.20;;;;;;5071303;28;20729;-66
2022/05/06 00:16:41;;;;;;;8.07;6.67;;;16.10;81.20;;;;;;5066392;28;20237;-65
2022/05/06 00:19:07;;;;;;;12.07;7.60;;;16.10;81.70;;;;;;5072844;28;20229;-64
2022/05/06 00:21:35;;;;;;;7.83;7.03;;;16.10;81.80;;;;;;5069884;28;20593;-64
2022/05/06 00:24:04;;;;;;;10.73;7.53;;;16.00;81.90;;;;;;5068885;28;20209;-63
2022/05/06 00:26:31;;;;;;;10.50;7.80;;;16.10;82.60;;;;;;5072356;28;20308;-64
2022/05/06 00:28:58;;;;;;;8.30;7.50;;;16.10;83.20;;;;;;5071891;28;20205;-68
2022/05/06 00:31:25;;;;;;;11.00;8.23;;;16.10;83.60;;;;;;5058915;28;20211;-65
2022/05/06 00:33:53;;;;;;;8.87;6.83;;;16.10;84.00;;;;;;5072175;28;20247;-65
2022/05/06 00:36:20;;;;;;;12.67;8.50;;;16.10;84.60;;;;;;5059999;28;20669;-63
2022/05/06 00:38:46;;;;;;;11.75;8.50;;;16.10;84.60;;;;;;5070179;28;20209;-63
2022/05/06 00:41:15;;;;;;;9.80;8.73;;;16.10;85.30;;;;;;5058431;28;20720;-65
2022/05/06 00:43:42;;;;;;;10.73;8.57;;;16.10;85.80;;;;;;5058203;28;20307;-64
2022/05/06 00:46:12;;;;;;;9.82;7.43;;;16.10;86.90;;;;;;5070199;28;20209;-64
2022/05/06 00:48:42;;;;;;;10.23;8.48;;;16.10;87.50;;;;;;5072809;28;20205;-64
2022/05/06 00:51:09;;;;;;;11.80;8.55;;;16.10;88.40;;;;;;5064985;28;20257;-64
2022/05/06 00:53:37;;;;;;;9.93;8.45;;;16.10;88.90;;;;;;5069997;28;20215;-64
2022/05/06 00:56:05;;;;;;;12.60;8.17;;;16.10;89.40;;;;;;5067057;28;20284;-64
2022/05/06 00:58:34;;;;;;;12.17;8.43;;;16.10;90.00;;;;;;5065250;28;20205;-65
2022/05/06 01:01:03;;;;;;;12.38;8.18;;;16.10;90.20;;;;;;5074055;28;20284;-64
2022/05/06 01:03:30;;;;;;;10.30;8.10;;;16.10;90.50;;;;;;5065492;28;20283;-65
2022/05/06 01:05:57;;;;;;;12.15;8.48;;;16.00;90.60;;;;;;5073391;28;20569;-65
2022/05/06 01:08:24;;;;;;;10.73;8.10;;;16.00;90.50;;;;;;5070158;28;20609;-64
2022/05/06 01:10:51;;;;;;;12.63;8.70;;;16.00;90.80;;;;;;5066722;28;20271;-64
2022/05/06 01:13:18;;;;;;;10.27;8.17;;;16.00;91.00;;;;;;5067944;28;20296;-64
2022/05/06 01:15:48;;;;;;;10.40;8.33;;;15.90;91.30;;;;;;5072171;28;20208;-64
2022/05/06 01:18:14;;;;;;;13.53;9.10;;;15.90;91.80;;;;;;5072668;28;20201;-65
2022/05/06 01:20:45;;;;;;;9.53;8.30;;;15.80;92.30;;;;;;5067302;28;20220;-64
2022/05/06 01:23:14;;;;;;;10.50;7.93;;;15.80;92.80;;;;;;5064552;28;20646;-65
2022/05/06 01:25:43;;;;;;;10.80;8.70;;;15.70;93.10;;;;;;5067149;28;20587;-65
2022/05/06 01:28:13;;;;;;;9.60;8.57;;;15.70;93.60;;;;;;5060759;28;20591;-64
2022/05/06 01:30:42;;;;;;;12.20;8.63;;;15.70;93.90;;;;;;5060931;28;20257;-65
2022/05/06 01:33:11;;;;;;;13.37;9.03;;;15.70;94.40;;;;;;5070145;28;20268;-65
2022/05/06 01:35:42;;;;;;;12.10;8.63;;;15.60;94.70;;;;;;5061926;28;20209;-64
2022/05/06 01:38:09;;;;;;;13.03;9.57;;;15.60;95.30;;;;;;5070633;28;20214;-64
2022/05/06 01:40:43;;;;;;;15.07;9.13;;;15.60;95.80;;;;;;5073524;28;20264;-64
2022/05/06 01:43:14;;;;;;;11.52;9.32;;;15.60;96.30;;;;;;5063039;28;20289;-63
2022/05/06 01:45:43;;;;;;;12.23;9.60;;;15.50;96.80;;;;;;5066807;28;20202;-64
2022/05/06 01:48:11;;;;;;;12.13;9.27;;;15.50;97.30;;;;;;5072265;28;20209;-63
2022/05/06 01:50:40;;;;;;;11.27;9.00;;;15.50;97.70;;;;;;5073001;28;20654;-64
2022/05/06 01:53:08;;;;;;;13.70;9.83;;;15.60;98.20;;;;;;5070675;28;20249;-63
2022/05/06 01:55:35;;;;;;;12.80;9.60;;;15.60;98.70;;;;;;5072072;28;20312;-65
2022/05/06 01:58:04;;;;;;;12.63;9.73;;;15.60;99.10;;;;;;5071828;28;20237;-63
2022/05/06 02:00:31;;;;;;;15.17;10.07;;;15.50;99.40;;;;;;5071744;28;20281;-63
2022/05/06 02:02:58;;;;;;;13.73;9.37;;;15.60;99.80;;;;;;5071448;28;20282;-63
2022/05/06 02:05:25;;;;;;;12.37;8.67;;;15.50;99.90;;;;;;5060511;28;20251;-65
2022/05/06 02:07:53;;;;;;;12.40;9.97;;;15.60;99.90;;;;;;5072573;28;20250;-65
2022/05/06 02:10:22;;;;;;;13.37;10.20;;;15.50;99.90;;;;;;5074776;28;20592;-65
2022/05/06 02:12:49;;;;;;;13.07;10.17;;;15.60;99.90;;;;;;5072233;28;20205;-64
2022/05/06 02:15:19;;;;;;;13.13;9.67;;;15.50;99.90;;;;;;5061917;28;20201;-63
2022/05/06 02:17:46;;;;;;;14.03;10.27;;;15.50;99.90;;;;;;5073547;28;20216;-64
2022/05/06 02:20:14;;;;;;;11.00;9.17;;;15.50;99.90;;;;;;5068206;28;20213;-63
2022/05/06 02:22:43;;;;;;;12.07;9.30;;;15.50;99.90;;;;;;5074901;28;20313;-64
2022/05/06 02:25:11;;;;;;;10.80;9.70;;;15.50;99.90;;;;;;5071935;28;20574;-65
2022/05/06 02:27:38;;;;;;;14.10;10.40;;;15.50;99.90;;;;;;5071152;28;20201;-64
2022/05/06 02:35:37;;;;;;;12.83;9.93;;;15.50;99.90;;;;;;5075869;28;20695;-63
2022/05/06 02:38:05;;;;;;;11.17;9.87;;;15.50;99.90;;;;;;5075141;28;20587;-63
2022/05/06 02:40:33;;;;;;;12.00;10.80;;;15.50;99.90;;;;;;5074781;28;20256;-64
2022/05/06 02:42:59;;;;;;;11.80;9.93;;;15.40;99.90;;;;;;5071024;28;20223;-64
2022/05/06 02:45:27;;;;;;;11.80;9.93;;;15.40;99.90;;;;;;5066665;28;20205;-65
2022/05/06 02:47:56;;;;;;;12.90;10.10;;;15.40;99.90;;;;;;5070433;28;20209;-65
2022/05/06 02:50:23;;;;;;;13.37;10.93;;;15.40;99.90;;;;;;5073427;28;20251;-65
2022/05/06 02:52:49;;;;;;;12.70;10.37;;;15.30;99.90;;;;;;5064353;28;20236;-64
2022/05/06 02:55:16;;;;;;;12.17;9.60;;;15.30;99.90;;;;;;5074336;28;20207;-64
2022/05/06 02:57:43;;;;;;;16.40;11.00;;;15.30;99.90;;;;;;5063404;28;20666;-64
2022/05/06 03:00:11;;;;;;;11.67;10.17;;;15.30;99.90;;;;;;5069787;28;20220;-64
2022/05/06 03:02:39;;;;;;;14.53;10.20;;;15.30;99.90;;;;;;5073601;28;20240;-64
2022/05/06 03:05:09;;;;;;;12.30;10.97;;;15.30;99.90;;;;;;5075194;28;20288;-64
2022/05/06 03:07:36;;;;;;;18.83;10.37;;;15.20;99.90;;;;;;5070479;28;20646;-65
2022/05/06 03:10:03;;;;;;;14.67;10.77;;;15.30;99.90;;;;;;5073827;28;20198;-64
2022/05/06 03:12:31;;;;;;;16.90;10.70;;;15.30;99.90;;;;;;5073087;28;20219;-64
2022/05/06 03:14:58;;;;;;;17.37;10.67;;;15.30;99.90;;;;;;5073276;28;20293;-64
2022/05/06 03:17:25;;;;;;;12.27;10.63;;;15.30;99.90;;;;;;5074151;28;20213;-63
2022/05/06 03:19:52;;;;;;;14.17;11.30;;;15.20;99.90;;;;;;5070518;28;20219;-64
2022/05/06 03:22:21;;;;;;;15.80;11.20;;;15.20;99.90;;;;;;5072761;28;20303;-64
2022/05/06 03:24:48;;;;;;;13.10;10.60;;;15.20;99.90;;;;;;5066703;28;20300;-64
2022/05/06 03:29:56;;;;;;;11.97;10.27;;;15.20;99.90;;;;;;5060364;28;20205;-65
2022/05/06 03:32:23;;;;;;;14.30;11.57;;;15.30;99.90;;;;;;5059334;28;20202;-64
2022/05/06 03:34:51;;;;;;;14.73;11.50;;;15.30;99.90;;;;;;5054868;28;20213;-65
2022/05/06 03:37:17;;;;;;;12.27;10.33;;;15.30;99.90;;;;;;5066317;28;20232;-65
2022/05/06 03:39:46;;;;;;;14.00;11.40;;;15.30;99.90;;;;;;5069952;28;20550;-63
2022/05/06 03:42:13;;;;;;;13.07;11.53;;;15.30;99.90;;;;;;5072708;28;20201;-64
2022/05/06 03:44:40;;;;;;;15.27;11.83;;;15.30;99.90;;;;;;5074257;28;20197;-67
2022/05/06 03:47:07;;;;;;;14.90;11.70;;;15.20;99.90;;;;;;5074050;28;20233;-65
2022/05/06 03:49:34;;;;;;;14.20;11.40;;;15.20;99.90;;;;;;5061896;28;20297;-64
2022/05/06 03:52:00;;;;;;;13.23;11.10;;;15.20;99.90;;;;;;5073033;28;20297;-65
2022/05/06 03:54:27;;;;;;;15.50;11.27;;;15.10;99.90;;;;;;5072448;28;20292;-65
2022/05/06 03:56:55;;;;;;;18.40;11.67;;;15.20;99.90;;;;;;5059887;28;20725;-65
2022/05/06 03:59:22;;;;;;;13.67;11.37;;;15.10;99.90;;;;;;5070209;28;20300;-65
2022/05/06 04:01:49;;;;;;;17.43;12.00;;;15.10;99.90;;;;;;5073575;28;20312;-65
2022/05/06 04:04:16;;;;;;;14.63;11.87;;;15.10;99.90;;;;;;5069390;28;20730;-65
2022/05/06 04:06:43;;;;;;;14.20;12.17;;;15.10;99.90;;;;;;5071691;28;20734;-65
2022/05/06 04:09:12;;;;;;;15.83;12.23;;;15.10;99.90;;;;;;5070785;28;20733;-64
2022/05/06 04:11:39;;;;;;;15.80;11.63;;;15.00;99.90;;;;;;5073126;28;20225;-64
2022/05/06 04:14:09;;;;;;;18.33;12.23;;;15.00;99.90;;;;;;5072420;28;20543;-64
2022/05/06 04:16:36;;;;;;;16.50;11.87;;;15.00;99.90;;;;;;5073074;28;20201;-64
2022/05/06 04:19:03;;;;;;;14.00;11.93;;;14.90;99.90;;;;;;5065066;28;20210;-65
2022/05/06 04:24:15;;;;;;;13.63;12.00;;;15.00;99.90;;;;;;5068171;28;20254;-65
2022/05/06 04:26:41;;;;;;;15.13;12.00;;;14.90;99.90;;;;;;5071419;28;20213;-66
2022/05/06 04:29:10;;;;;;;16.00;10.80;;;14.90;99.90;;;;;;5061828;28;20245;-66
2022/05/06 04:31:37;;;;;;;12.17;10.53;;;14.90;99.90;;;;;;5071563;28;20824;-64
2022/05/06 04:34:03;;;;;;;15.07;12.00;;;14.90;99.90;;;;;;5060251;28;20205;-64
2022/05/06 04:36:31;;;;;;;15.53;12.00;;;14.90;99.90;;;;;;5058888;28;20206;-65
2022/05/06 04:38:57;;;;;;;15.90;11.60;;;14.90;99.90;;;;;;5071866;28;20200;-65
2022/05/06 04:41:25;;;;;;;14.07;11.47;;;14.90;99.90;;;;;;5072333;28;20576;-65
2022/05/06 04:43:52;;;;;;;14.70;12.43;;;14.90;99.90;;;;;;5062055;28;20537;-64
2022/05/06 04:46:20;;;;;;;14.90;11.63;;;14.90;99.90;;;;;;5060639;28;20735;-65
2022/05/06 04:48:47;;;;;;;13.70;12.00;;;14.90;99.90;;;;;;5060790;28;20223;-64
2022/05/06 04:51:14;;;;;;;14.17;11.43;;;14.90;99.90;;;;;;5071421;28;20312;-65
2022/05/06 04:53:40;;;;;;;17.43;11.67;;;14.90;99.90;;;;;;5064885;28;20483;-65
2022/05/06 04:56:07;;;;;;;14.80;12.17;;;14.90;99.90;;;;;;5069156;28;20295;-64
2022/05/06 04:58:34;;;;;;;16.93;13.10;;;14.90;99.90;;;;;;5061633;28;20308;-65
2022/05/06 05:01:01;;;;;;;15.67;11.83;;;14.90;99.90;;;;;;5069787;28;20268;-65
2022/05/06 05:03:29;;;;;;;15.17;12.17;;;14.90;99.90;;;;;;5070686;28;20201;-64
2022/05/06 05:05:56;;;;;;;18.40;11.83;;;15.00;99.90;;;;;;5069799;28;20209;-65
2022/05/06 05:08:23;;;;;;;17.20;12.10;;;15.10;99.90;;;;;;5070832;28;20201;-64
2022/05/06 05:10:50;;;;;;;16.53;11.23;;;15.10;99.90;;;;;;5067087;28;20328;-65
2022/05/06 05:13:17;;;;;;;13.87;11.70;;;15.10;99.90;;;;;;5070780;28;20205;-65
2022/05/06 05:15:44;;;;;;;14.07;11.20;;;15.20;99.90;;;;;;5066872;28;20237;-66
2022/05/06 05:18:11;;;;;;;13.47;11.07;;;15.20;99.90;;;;;;5063168;28;20323;-65
2022/05/06 05:20:39;;;;;;;16.20;12.03;;;15.20;99.90;;;;;;5068624;28;20221;-66
2022/05/06 05:23:06;;;;;;;14.07;11.30;;;15.20;99.90;;;;;;5071558;28;20288;-66
2022/05/06 05:25:33;;;;;;;15.53;11.77;;;15.20;99.90;;;;;;5073188;28;20658;-66
2022/05/06 05:28:00;;;;;;;16.07;11.77;;;15.30;99.90;;;;;;5059259;28;20209;-66
2022/05/06 05:30:27;;;;;;;17.10;12.43;;;15.30;99.90;;;;;;5071562;28;20662;-68
2022/05/06 05:32:54;;;;;;;15.33;11.97;;;15.40;99.90;;;;;;5065192;28;20202;-68
2022/05/06 05:35:21;;;;;;;16.00;11.57;;;15.40;99.90;;;;;;5075013;28;20327;-65
2022/05/06 05:37:49;;;;;;;17.60;12.13;;;15.40;99.90;;;;;;5064070;28;20212;-66
2022/05/06 05:40:16;;;;;;;14.20;11.80;;;15.40;99.90;;;;;;5065205;28;20271;-65
2022/05/06 05:42:43;;;;;;;12.90;11.47;;;15.40;99.90;;;;;;5075508;28;20251;-66
2022/05/06 05:50:39;;;;;;;15.00;12.73;;;15.30;99.90;;;;;;5058075;28;20189;-65
2022/05/06 05:53:07;;;;;;;13.07;11.67;;;15.20;99.90;;;;;;5061458;28;20252;-66
2022/05/06 05:55:34;;;;;;;14.83;11.63;;;15.30;99.90;;;;;;5078154;28;20241;-66
2022/05/06 05:58:01;;;;;;;14.17;10.57;;;15.20;99.90;;;;;;5074561;28;20234;-65
2022/05/06 06:00:28;;;;;;;14.77;10.83;;;15.20;99.90;;;;;;5064959;28;20206;-66
2022/05/06 06:02:56;;;;;;;14.37;11.63;;;15.20;99.90;;;;;;5062785;28;20206;-66
2022/05/06 06:05:23;;;;;;;13.53;11.40;;;15.20;99.90;;;;;;5077046;28;20205;-66
2022/05/06 06:07:50;;;;;;;16.90;12.33;;;15.30;99.90;;;;;;5068645;28;20680;-64
2022/05/06 06:10:18;;;;;;;12.50;10.60;;;15.40;99.90;;;;;;5073641;28;20307;-66
2022/05/06 06:12:45;;;;;;;15.70;10.80;;;15.40;99.90;;;;;;5073977;28;20245;-67
2022/05/06 06:15:12;;;;;;;13.37;10.67;;;15.50;99.90;;;;;;5074845;28;20706;-67
2022/05/06 06:17:39;;;;;;;16.57;10.57;;;15.50;99.90;;;;;;5076833;28;20212;-66
2022/05/06 06:20:07;;;;;;;13.53;10.10;;;15.60;99.90;;;;;;5073207;28;20243;-67
2022/05/06 06:22:34;;;;;;;14.17;10.10;;;15.60;99.90;;;;;;5070702;28;20635;-67
2022/05/06 06:25:02;;;;;;;14.43;10.00;;;15.60;99.90;;;;;;5076190;28;20237;-66
2022/05/06 06:27:31;;;;;;;13.23;11.20;;;15.60;99.90;;;;;;5066212;28;20205;-67
2022/05/06 06:29:58;;;;;;;15.10;11.33;;;15.60;99.90;;;;;;5074622;28;20618;-67
2022/05/06 06:32:25;;;;;;;13.43;9.00;;;15.60;99.90;;;;;;5073201;28;20267;-66
2022/05/06 06:34:54;;;;;;;11.73;9.20;;;15.60;99.90;;;;;;5073624;28;20361;-68
2022/05/06 06:37:21;;;;;;;12.87;9.97;;;15.50;99.90;;;;;;5068522;28;20464;-65
2022/05/06 06:39:48;;;;;;;18.33;9.73;;;15.50;99.90;;;;;;5073582;28;20293;-66
2022/05/06 06:42:15;;;;;;;12.40;9.53;;;15.50;99.90;;;;;;5065691;28;20202;-68
2022/05/06 06:44:44;;;;;;;11.47;9.27;;;15.50;99.90;;;;;;5073485;28;20259;-69
2022/05/06 06:47:11;;;;;;;10.40;8.90;;;15.50;99.90;;;;;;5075142;28;20302;-68
2022/05/06 06:49:38;;;;;;;9.87;8.37;;;15.60;99.90;;;;;;5075582;28;20209;-66
2022/05/06 06:52:06;;;;;;;10.35;8.73;;;15.60;99.90;;;;;;5073247;28;20221;-66
2022/05/06 06:54:33;;;;;;;11.30;8.63;;;15.60;99.90;;;;;;5073798;28;20568;-65
2022/05/06 06:57:00;;;;;;;14.57;9.00;;;15.60;99.90;;;;;;5073617;28;20209;-65
2022/05/06 06:59:27;;;;;;;11.55;8.85;;;15.60;99.90;;;;;;5068423;28;20229;-66
2022/05/06 07:01:55;;;;;;;12.17;9.43;;;15.60;99.90;;;;;;5070640;28;20223;-65
2022/05/06 07:04:22;;;;;;;12.50;9.93;;;15.70;99.90;;;;;;5072878;28;20267;-65
2022/05/06 07:12:17;;;;;;;13.17;9.07;;;16.00;99.90;;;;;;5074452;28;20211;-67
2022/05/06 07:14:44;;;;;;;12.07;9.00;;;16.00;99.90;;;;;;5069375;28;20274;-66
2022/05/06 07:17:13;;;;;;;14.00;9.87;;;16.00;99.90;;;;;;5071806;28;20205;-66
2022/05/06 07:19:40;;;;;;;11.77;9.77;;;16.00;99.90;;;;;;5068809;28;20236;-67
2022/05/06 07:22:07;;;;;;;10.88;9.75;;;16.10;99.90;;;;;;5073294;28;20328;-66
2022/05/06 07:24:35;;;;;;;14.07;10.55;;;16.10;99.90;;;;;;5076401;28;20205;-66
2022/05/06 07:27:02;;;;;;;11.63;9.80;;;16.20;99.90;;;;;;5070334;28;20585;-67
2022/05/06 07:29:31;;;;;;;13.80;10.13;;;16.40;99.90;;;;;;5073629;28;20250;-67
2022/05/06 07:31:57;;;;;;;14.60;10.23;;;16.60;99.90;;;;;;5071654;28;20546;-66
2022/05/06 07:34:26;;;;;;;12.60;9.47;;;16.80;99.90;;;;;;5075361;28;20398;-65
2022/05/06 07:36:53;;;;;;;11.40;9.52;;;16.90;99.90;;;;;;5068929;28;20229;-66
2022/05/06 07:39:20;;;;;;;12.10;8.80;;;17.10;99.90;;;;;;5072286;28;20314;-65
2022/05/06 07:41:47;;;;;;;10.95;9.80;;;17.20;99.90;;;;;;5068624;28;20681;-65
2022/05/06 07:44:14;;;;;;;11.35;8.82;;;17.50;99.90;;;;;;5075735;28;20304;-65
2022/05/06 07:46:41;;;;;;;13.45;9.48;;;17.70;99.90;;;;;;5070029;28;20232;-66
2022/05/06 07:49:08;;;;;;;11.25;8.70;;;18.00;99.90;;;;;;5075805;28;20212;-66
2022/05/06 07:51:37;;;;;;;11.40;8.85;;;18.30;99.90;;;;;;5069458;28;20229;-64
2022/05/06 07:54:04;;;;;;;12.27;8.88;;;18.60;99.90;;;;;;5070730;28;20233;-65
2022/05/06 07:56:31;;;;;;;12.75;9.38;;;18.80;99.90;;;;;;5074428;28;20205;-65
2022/05/06 07:58:58;;;;;;;12.05;9.52;;;18.90;99.90;;;;;;5068622;28;20206;-65
2022/05/06 08:06:52;;;;;;;11.68;9.82;;;19.00;99.60;;;;;;5064769;28;20196;-66
2022/05/06 08:09:19;;;;;;;10.82;8.95;;;19.10;99.10;;;;;;5065532;28;20627;-65
2022/05/06 08:11:46;;;;;;;11.10;9.35;;;19.20;99.10;;;;;;5066551;28;20221;-65
2022/05/06 08:14:14;;;;;;;11.77;9.60;;;19.40;99.00;;;;;;5069387;28;20234;-67
2022/05/06 08:16:41;;;;;;;10.10;9.10;;;19.60;98.40;;;;;;5070003;28;20213;-66
2022/05/06 08:19:08;;;;;;;10.25;9.25;;;19.60;97.90;;;;;;5070971;28;20339;-66
2022/05/06 08:21:35;;;;;;;14.25;9.98;;;19.70;97.60;;;;;;5069321;28;20229;-66
2022/05/06 08:24:04;;;;;;;10.27;9.27;;;19.80;97.10;;;;;;5061553;28;20296;-66
2022/05/06 08:26:31;;;;;;;13.20;10.13;;;19.90;96.80;;;;;;5072809;28;20708;-66
2022/05/06 08:28:58;;;;;;;13.15;9.85;;;20.10;96.90;;;;;;5066484;28;20209;-66
2022/05/06 08:31:25;;;;;;;11.45;9.85;;;20.20;96.30;;;;;;5066085;28;20277;-65
2022/05/06 08:33:52;;;;;;;11.05;8.90;;;20.40;95.90;;;;;;5062137;28;20306;-67
2022/05/06 08:36:19;;;;;;;12.55;9.90;;;20.60;95.50;;;;;;5060788;28;20201;-66
2022/05/06 08:38:46;;;;;;;10.35;9.23;;;20.70;95.00;;;;;;5071872;28;20654;-66
2022/05/06 08:41:15;;;;;;;12.77;9.45;;;20.70;94.50;;;;;;5070261;28;20240;-67
2022/05/06 08:43:42;;;;;;;12.27;9.65;;;20.70;94.10;;;;;;5075169;28;20228;-67
2022/05/06 08:51:41;;;;;;;11.02;9.93;;;20.80;92.90;;;;;;5072113;28;20208;-66
2022/05/06 08:54:11;;;;;;;10.55;9.18;;;20.90;92.80;;;;;;5073752;28;20661;-67
2022/05/06 08:56:39;;;;;;;12.68;9.60;;;21.10;92.90;;;;;;5067483;28;20210;-66
2022/05/06 08:59:06;;;;;;;11.57;10.10;;;21.40;92.20;;;;;;5071745;28;20213;-68
2022/05/06 09:01:33;;;;;;;12.90;10.35;;;21.60;91.70;;;;;;5072087;28;20718;-67
2022/05/06 09:03:59;;;;;;;12.30;9.48;;;21.80;91.30;;;;;;5069416;28;20247;-66
2022/05/06 09:06:29;;;;;;;15.38;11.32;;;21.90;90.90;;;;;;5069696;28;20208;-67
2022/05/06 09:08:58;;;;;;;10.63;9.52;;;22.20;90.60;;;;;;5064656;28;20670;-66
2022/05/06 09:14:16;;;;;;;12.40;10.10;;;22.90;90.00;;;;;;5065050;28;20543;-67
2022/05/06 09:16:44;;;;;;;11.82;10.00;;;23.30;87.00;;;;;;5068444;28;20202;-66
2022/05/06 09:19:19;;;;;;;10.23;9.13;;;23.20;85.30;;;;;;5070288;28;20213;-66
2022/05/06 09:22:13;;;;;;;11.85;9.35;;;23.20;84.60;;;;;;5059481;28;20468;-66
2022/05/06 09:24:40;;;;;;;15.48;9.57;;;23.40;84.10;;;;;;5068846;28;20205;-67
2022/05/06 09:27:09;;;;;;;13.68;10.85;;;23.50;82.80;;;;;;5062629;28;20208;-66
2022/05/06 09:29:39;;;;;;;12.05;10.25;;;23.70;81.40;;;;;;5067132;28;20211;-67
2022/05/06 09:32:19;;;;;;;12.10;9.73;;;23.70;80.00;;;;;;5067127;28;20285;-65
2022/05/06 09:34:48;;;;;;;11.05;9.90;;;23.70;80.30;;;;;;5070831;28;20600;-66
2022/05/06 09:37:36;;;;;;;11.88;10.60;;;23.60;80.10;;;;;;5067698;28;20645;-68
2022/05/06 09:40:11;;;;;;;11.38;10.25;;;23.60;80.10;;;;;;5063033;28;20241;-67
2022/05/06 09:42:39;;;;;;;12.63;9.88;;;23.70;79.60;;;;;;5076881;28;20205;-66
2022/05/06 09:45:09;;;;;;;13.50;10.75;;;23.80;79.00;;;;;;5069550;28;20233;-65
2022/05/06 09:47:36;;;;;;;10.80;9.70;;;23.80;78.90;;;;;;5061992;28;20209;-68
2022/05/06 09:50:05;;;;;;;10.50;9.50;;;23.70;78.80;;;;;;5056381;28;20218;-66
2022/05/06 09:52:32;;;;;;;10.38;9.10;;;23.70;78.80;;;;;;5074739;28;20220;-67
2022/05/06 09:55:00;;;;;;;10.82;9.18;;;23.60;79.20;;;;;;5076654;28;20205;-66
2022/05/06 09:57:27;;;;;;;10.95;9.95;;;23.60;78.90;;;;;;5067799;28;20225;-66
2022/05/06 09:59:54;;;;;;;11.68;10.07;;;23.50;78.20;;;;;;5059577;28;20237;-66
2022/05/06 10:02:22;;;;;;;8.93;7.95;;;23.40;78.60;;;;;;5076897;28;20228;-67
2022/05/06 10:04:49;;;;;;;11.10;7.95;;;23.40;78.70;;;;;;5069147;28;20209;-67
2022/05/06 10:07:18;;;;;;;9.38;8.40;;;23.60;78.20;;;;;;5063721;28;20255;-67
2022/05/06 10:09:54;;;;;;;9.15;7.72;;;23.70;76.70;;;;;;5067047;28;20205;-68
2022/05/06 10:12:23;;;;;;;9.88;8.30;;;23.70;75.30;;;;;;5063865;28;20600;-68
2022/05/06 10:14:52;;;;;;;9.55;7.75;;;23.70;75.30;;;;;;5072174;28;20212;-68
2022/05/06 10:17:54;;;;;;;10.35;9.00;;;23.70;75.30;;;;;;5058109;28;20655;-67
2022/05/06 10:20:48;;;;;;;9.52;8.45;;;23.60;75.10;;;;;;5011578;28;20282;-68
2022/05/06 10:23:15;;;;;;;8.82;8.02;;;23.60;75.30;;;;;;5065536;28;20265;-66
2022/05/06 10:25:57;;;;;;;9.68;8.68;;;23.60;75.70;;;;;;5067110;28;20218;-67
2022/05/06 10:34:32;;;;;;;9.20;8.27;;;23.50;74.90;;;;;;5075880;28;20722;-67
2022/05/06 10:37:02;;;;;;;12.73;8.52;;;23.50;74.20;;;;;;5075941;28;20209;-66
2022/05/06 10:39:34;;;;;;;9.32;7.85;;;23.50;74.80;;;;;;5070461;28;20206;-66
2022/05/06 10:42:06;;;;;;;9.55;7.70;;;23.60;74.90;;;;;;5065293;28;20205;-66
2022/05/06 10:44:35;;;;;;;10.55;7.90;;;23.60;74.00;;;;;;5074669;28;20202;-67
2022/05/06 10:47:03;;;;;;;9.18;7.63;;;23.60;73.40;;;;;;5075322;28;20277;-65
2022/05/06 10:49:50;;;;;;;8.80;7.80;;;23.50;73.20;;;;;;5075464;28;20320;-65
2022/05/06 10:52:53;;;;;;;8.90;8.00;;;23.40;73.50;;;;;;5074382;28;20213;-65
2022/05/06 10:55:22;;;;;;;10.20;8.75;;;23.30;74.20;;;;;;5073955;28;20293;-66
2022/05/06 10:57:57;;;;;;;10.25;8.35;;;23.20;74.80;;;;;;5067271;28;20297;-65
2022/05/06 11:00:27;;;;;;;9.65;8.75;;;23.20;75.20;;;;;;5072644;28;20232;-66
2022/05/06 11:02:55;;;;;;;9.38;8.57;;;23.30;75.70;;;;;;5072497;28;20228;-65
2022/05/06 11:05:24;;;;;;;10.23;8.70;;;23.50;75.80;;;;;;5074140;28;20231;-66
2022/05/06 11:07:55;;;;;;;9.82;8.20;;;23.80;75.60;;;;;;5074231;28;20209;-65
2022/05/06 11:10:25;;;;;;;9.02;8.13;;;24.20;73.80;;;;;;5071887;28;20248;-66
2022/05/06 11:12:53;;;;;;;11.05;8.65;;;24.60;72.90;;;;;;5073258;28;20221;-66
2022/05/06 11:15:22;;;;;;;12.18;8.55;;;24.80;71.00;;;;;;5067747;28;20205;-67
2022/05/06 11:17:51;;;;;;;9.70;7.90;;;24.90;69.80;;;;;;5073299;28;20638;-65
2022/05/06 11:20:23;;;;;;;9.38;7.50;;;24.80;68.80;;;;;;5074960;28;20666;-66
2022/05/06 11:22:52;;;;;;;10.65;8.30;;;24.90;67.40;;;;;;5073043;28;20248;-65
2022/05/06 11:25:21;;;;;;;8.70;7.63;;;25.00;65.60;;;;;;5074438;28;20273;-65
2022/05/06 11:27:49;;;;;;;8.70;7.80;;;25.00;64.30;;;;;;5072939;28;20277;-67
2022/05/06 11:30:20;;;;;;;8.43;7.72;;;24.90;63.10;;;;;;5075017;28;20205;-65
2022/05/06 11:32:51;;;;;;;9.40;8.48;;;24.90;62.80;;;;;;5071304;28;20700;-65
2022/05/06 11:35:31;;;;;;;9.52;8.63;;;24.80;61.90;;;;;;5069254;28;20240;-66
2022/05/06 11:37:59;;;;;;;11.60;10.50;;;24.60;61.20;;;;;;5072917;28;20232;-66
2022/05/06 11:40:35;;;;;;;11.75;10.05;;;24.40;61.30;;;;;;5073886;28;20316;-65
2022/05/06 11:43:07;;;;;;;10.20;9.13;;;24.20;62.00;;;;;;5073052;28;20204;-65
2022/05/06 11:48:22;;;;;;;10.77;8.75;;;23.90;62.60;;;;;;5075284;28;20684;-65
2022/05/06 11:51:00;;;;;;;10.18;9.10;;;23.90;62.80;;;;;;5073343;28;20209;-65
2022/05/06 11:53:29;;;;;;;10.82;9.77;;;23.90;63.40;;;;;;5073008;28;20281;-66
2022/05/06 11:55:56;;;;;;;9.75;8.75;;;23.90;64.30;;;;;;5075412;28;20217;-65
2022/05/06 11:58:26;;;;;;;14.00;10.98;;;24.00;65.50;;;;;;5075853;28;20255;-66
2022/05/06 12:00:54;;;;;;;14.05;12.18;;;24.20;65.30;;;;;;5076131;28;20259;-65
2022/05/06 12:03:22;;;;;;;13.93;11.18;;;24.30;64.30;;;;;;5073795;28;20209;-67
2022/05/06 12:06:03;;;;;;;12.95;11.30;;;24.50;64.10;;;;;;5067966;28;20205;-65
2022/05/06 12:08:33;;;;;;;14.00;12.57;;;24.70;62.80;;;;;;5073152;28;20205;-65
2022/05/06 12:11:02;;;;;;;13.00;11.70;;;24.80;62.10;;;;;;5076847;28;20304;-66
2022/05/06 12:13:34;;;;;;;11.27;10.25;;;24.90;61.90;;;;;;5075864;28;20217;-65
2022/05/06 12:16:09;;;;;;;12.07;10.85;;;24.90;62.10;;;;;;5065357;28;20272;-66
2022/05/06 12:18:38;;;;;;;12.65;11.02;;;25.00;61.90;;;;;;5071326;28;20221;-64
2022/05/06 12:21:22;;;;;;;12.38;10.13;;;25.10;61.80;;;;;;5073968;28;20236;-65
2022/05/06 12:23:55;;;;;;;12.57;10.77;;;25.20;61.40;;;;;;5058728;28;20202;-67
2022/05/06 12:26:33;;;;;;;9.45;7.75;;;25.30;60.80;;;;;;5071694;28;20201;-67
2022/05/06 12:29:02;;;;;;;9.15;8.25;;;25.40;60.00;;;;;;5073489;28;20662;-66
2022/05/06 12:31:30;;;;;;;9.75;7.65;;;25.50;58.60;;;;;;5071395;28;20213;-66
2022/05/06 12:34:06;;;;;;;7.50;6.55;;;25.60;57.90;;;;;;5062403;28;20253;-67
2022/05/06 12:36:33;;;;;;;9.40;6.20;;;25.60;56.30;;;;;;5063748;28;20208;-66
2022/05/06 12:39:01;;;;;;;8.13;6.20;;;25.60;55.80;;;;;;5073861;28;20212;-65
2022/05/06 12:41:34;;;;;;;5.38;4.78;;;25.70;55.70;;;;;;5073215;28;20573;-65
2022/05/06 12:44:16;;;;;;;6.55;5.43;;;25.70;55.70;;;;;;5071175;28;20232;-66
2022/05/06 12:46:43;;;;;;;4.68;4.20;;;25.80;55.00;;;;;;5077251;28;20199;-67
2022/05/06 12:51:55;;;;;;;5.13;3.75;;;25.70;54.00;;;;;;5078200;28;20250;-67
2022/05/06 12:54:26;;;;;;;4.75;4.30;;;25.70;54.10;;;;;;5071004;28;20228;-68
2022/05/06 12:56:53;;;;;;;5.88;4.90;;;25.60;54.80;;;;;;5077971;28;20217;-68
2022/05/06 12:59:27;;;;;;;5.75;5.22;;;25.70;55.40;;;;;;5082116;28;20212;-68
2022/05/06 13:01:55;;;;;;;9.63;5.03;;;25.60;55.60;;;;;;5089123;28;20205;-68
2022/05/06 13:04:22;;;;;;;4.93;4.47;;;25.60;55.80;;;;;;5079605;28;20212;-68
2022/05/06 13:06:49;;;;;;;6.85;5.20;;;25.70;55.90;;;;;;5076132;28;20201;-68
2022/05/06 13:09:16;;;;;;;6.00;4.70;;;25.50;55.70;;;;;;5073254;28;20204;-69
2022/05/06 13:11:45;;;;;;;5.97;4.30;;;25.30;56.40;;;;;;5073202;28;20201;-66
2022/05/06 13:14:12;;;;;;;4.68;4.00;;;25.20;56.80;;;;;;5066582;28;20538;-66
2022/05/06 13:16:39;;;;;;;4.82;4.32;;;25.10;56.90;;;;;;5073284;28;20236;-66
2022/05/06 13:19:09;;;;;;;7.95;4.25;;;25.00;57.00;;;;;;5069388;28;20206;-68
2022/05/06 13:21:38;;;;;;;5.30;4.28;;;24.80;57.20;;;;;;5071159;28;20236;-67
2022/05/06 13:24:07;;;;;;;7.63;4.40;;;24.80;57.40;;;;;;5072077;28;20678;-67
2022/05/06 13:26:35;;;;;;;5.00;4.15;;;24.90;57.40;;;;;;5073477;28;20599;-67
2022/05/06 13:29:05;;;;;;;5.70;4.50;;;25.00;57.30;;;;;;5060193;28;20564;-67
2022/05/06 13:31:34;;;;;;;5.00;4.25;;;25.00;56.70;;;;;;5073262;28;20201;-67